createdAt,value
2022-11-21T00:04:33.550Z,94571.66
2022-11-21T00:09:36.952Z,94553.75
2022-11-21T00:14:38.926Z,94558.94
2022-11-21T00:19:40.785Z,94554.25
2022-11-21T00:24:42.577Z,94552.03
2022-11-21T00:29:44.413Z,94541.34
2022-11-21T00:34:46.407Z,94540.72
2022-11-21T00:39:48.244Z,94518.91
2022-11-21T00:44:50.172Z,94519.84
2022-11-21T00:49:52.108Z,94518.56
2022-11-21T00:54:53.956Z,94507.56
2022-11-21T00:59:55.778Z,94494.53
2022-11-21T01:04:57.655Z,94477.41
2022-11-21T01:11:23.820Z,94475.09
2022-11-21T01:16:27.658Z,94466.16
2022-11-21T01:21:31.301Z,94472.53
2022-11-21T01:26:33.298Z,94455.56
2022-11-21T01:31:35.558Z,94477.56
2022-11-21T01:36:37.466Z,94477.22
2022-11-21T01:41:41.721Z,94417.59
2022-11-21T01:46:43.779Z,94401.13
2022-11-21T01:51:59.000Z,94436.25
2022-11-21T01:57:23.657Z,94419.13
2022-11-21T02:02:29.852Z,94376.31
2022-11-21T02:07:35.844Z,94364.50
2022-11-21T02:12:54.645Z,94382.97
2022-11-21T02:17:56.880Z,94341.25
2022-11-21T02:23:01.612Z,94367.38
2022-11-21T02:28:06.273Z,94369.16
2022-11-21T02:33:08.797Z,94356.78
2022-11-21T02:38:23.221Z,94360.03
2022-11-21T02:43:29.070Z,94353.44
2022-11-21T02:48:30.940Z,94360.03
2022-11-21T02:53:33.105Z,94354.25
2022-11-21T02:58:35.051Z,94345.13
2022-11-21T03:03:37.075Z,94306.09
2022-11-21T03:08:38.941Z,94334.59
2022-11-21T03:13:40.859Z,94344.22
2022-11-21T03:18:42.726Z,94340.41
2022-11-21T03:23:44.651Z,94329.91
2022-11-21T03:28:46.534Z,94333.97
2022-11-21T03:33:48.442Z,94315.75
2022-11-21T03:38:50.407Z,94314.19
2022-11-21T03:43:53.558Z,94312.75
2022-11-21T03:50:00.030Z,94308.97
2022-11-21T03:55:01.844Z,94308.19
2022-11-21T04:00:04.131Z,94291.50
2022-11-21T04:12:31.307Z,94276.94
2022-11-21T04:17:33.288Z,94260.78
2022-11-21T04:22:35.180Z,94279.72
2022-11-21T04:27:37.191Z,94275.50
2022-11-21T04:32:39.043Z,94268.44
2022-11-21T04:37:41.024Z,94270.22
2022-11-21T04:42:46.967Z,94272.72
2022-11-21T04:47:50.629Z,94240.28
2022-11-21T05:00:24.043Z,94259.69
2022-11-21T05:05:26.431Z,94211.53
2022-11-21T05:10:28.327Z,94239.13
2022-11-21T05:15:30.141Z,94233.91
2022-11-21T05:20:36.609Z,94244.47
2022-11-21T05:25:38.701Z,94243.00
2022-11-21T05:30:40.703Z,94236.88
2022-11-21T05:35:44.870Z,94223.88
2022-11-21T05:40:46.843Z,94214.75
2022-11-21T05:45:50.303Z,94184.28
2022-11-21T05:50:52.191Z,94213.66
2022-11-21T05:55:54.136Z,94172.03
2022-11-21T06:01:00.008Z,94212.38
2022-11-21T06:06:14.265Z,94193.06
2022-11-21T06:11:17.098Z,94172.41
2022-11-21T06:16:20.207Z,94198.69
2022-11-21T06:21:27.112Z,94193.34
2022-11-21T06:26:29.089Z,94157.19
2022-11-21T06:31:31.967Z,94145.72
2022-11-21T06:36:33.816Z,94161.63
2022-11-21T06:41:35.794Z,94171.88
2022-11-21T06:46:37.616Z,94179.22
2022-11-21T06:51:39.439Z,94147.22
2022-11-21T06:56:41.246Z,94125.56
2022-11-21T07:01:43.302Z,94143.59
2022-11-21T07:06:45.222Z,94141.03
2022-11-21T07:11:47.165Z,94147.16
2022-11-21T07:16:48.987Z,94135.56
2022-11-21T07:29:30.086Z,94108.13
2022-11-21T07:34:32.197Z,94113.03
2022-11-21T07:39:34.041Z,94109.72
2022-11-21T07:44:35.910Z,94099.94
2022-11-21T07:49:37.854Z,94104.94
2022-11-21T08:01:32.735Z,94084.34
2022-11-21T08:06:35.221Z,94080.75
2022-11-21T08:11:37.466Z,94080.09
2022-11-21T08:16:39.311Z,94076.56
2022-11-21T08:21:41.245Z,94050.72
2022-11-21T08:26:44.421Z,94064.91
2022-11-21T08:31:46.255Z,93996.16
2022-11-21T08:37:36.801Z,94040.97
2022-11-21T08:42:38.655Z,94013.00
2022-11-21T08:47:40.525Z,94007.13
2022-11-21T08:52:42.458Z,93988.06
2022-11-21T08:57:44.443Z,94044.09
2022-11-21T09:02:46.306Z,94074.16
2022-11-21T09:07:48.623Z,94058.47
2022-11-21T09:12:50.763Z,94020.34
2022-11-21T09:18:05.105Z,94021.13
2022-11-21T09:23:12.384Z,93996.63
2022-11-21T09:28:15.011Z,94040.53
2022-11-21T09:33:20.033Z,93988.88
2022-11-21T09:38:24.164Z,94015.81
2022-11-21T09:43:49.676Z,94030.38
2022-11-21T09:48:59.205Z,93999.78
2022-11-21T09:54:10.087Z,94002.34
2022-11-21T09:59:33.722Z,94013.56
2022-11-21T10:12:37.764Z,93996.56
2022-11-21T10:18:04.045Z,94004.44
2022-11-21T10:23:33.594Z,93990.75
2022-11-21T10:36:23.739Z,93933.66
2022-11-21T10:41:48.943Z,93944.41
2022-11-21T10:46:57.950Z,93938.44
2022-11-21T10:52:19.423Z,93928.50
2022-11-21T10:57:21.375Z,93873.84
2022-11-21T11:02:25.128Z,93878.94
2022-11-21T11:07:29.627Z,93905.72
2022-11-21T11:12:50.970Z,93852.63
2022-11-21T11:17:58.087Z,93885.78
2022-11-21T11:22:59.937Z,93865.06
2022-11-21T11:28:07.658Z,93857.03
2022-11-21T11:33:33.565Z,93852.00
2022-11-21T11:38:35.485Z,93845.84
2022-11-21T11:44:28.562Z,93864.00
2022-11-21T11:49:32.331Z,93855.50
2022-11-21T11:54:52.074Z,93829.06
2022-11-21T12:00:20.346Z,93836.41
2022-11-21T12:05:25.754Z,93838.69
2022-11-21T12:11:13.801Z,93841.94
2022-11-21T12:16:17.163Z,93809.47
2022-11-21T12:21:19.619Z,93857.47
2022-11-21T12:26:38.626Z,93902.72
2022-11-21T12:31:58.207Z,93874.41
2022-11-21T12:37:19.420Z,93823.72
2022-11-21T12:42:50.767Z,93773.22
2022-11-21T12:48:17.331Z,93722.44
2022-11-21T12:54:29.242Z,93717.00
2022-11-21T12:59:53.919Z,93704.50
2022-11-21T13:04:57.621Z,93719.63
2022-11-21T13:10:01.196Z,93725.97
2022-11-21T13:15:28.474Z,93737.72
2022-11-21T13:28:19.043Z,93761.84
2022-11-21T13:33:36.252Z,93712.78
2022-11-21T13:38:53.288Z,93678.59
2022-11-21T13:44:33.445Z,93696.34
2022-11-21T13:50:04.943Z,93694.88
2022-11-21T13:55:31.012Z,93697.75
2022-11-21T14:00:59.947Z,93667.72
2022-11-21T14:06:37.522Z,93649.16
2022-11-21T14:13:02.978Z,93636.47
2022-11-21T14:18:04.998Z,93613.97
2022-11-21T14:23:16.801Z,93613.81
2022-11-21T14:28:27.132Z,93614.06
2022-11-21T14:33:32.532Z,93603.63
2022-11-21T14:38:40.705Z,93594.28
2022-11-21T14:44:47.127Z,93586.34
2022-11-21T14:49:54.074Z,93593.25
2022-11-21T15:06:02.604Z,93559.78
2022-11-21T15:11:08.399Z,93553.25
2022-11-21T15:16:10.302Z,93572.81
2022-11-21T15:21:15.848Z,93577.50
2022-11-21T15:26:33.103Z,93541.81
2022-11-21T15:31:35.022Z,93622.88
2022-11-21T15:36:36.936Z,93636.13
2022-11-21T15:41:39.150Z,93613.16
2022-11-21T15:46:45.124Z,93608.41
2022-11-21T15:57:12.301Z,93681.44
2022-11-21T16:02:15.016Z,93658.66
2022-11-21T16:07:17.010Z,93642.53
2022-11-21T16:12:18.940Z,93637.88
2022-11-21T16:17:21.347Z,93656.31
2022-11-21T16:22:23.198Z,93635.13
2022-11-21T16:27:25.145Z,93637.44
2022-11-21T16:32:27.649Z,93639.88
2022-11-21T16:37:32.268Z,93640.66
2022-11-21T16:42:34.214Z,93631.88
2022-11-21T16:47:37.709Z,93637.22
2022-11-21T16:52:39.633Z,93642.44
2022-11-21T16:57:43.344Z,93665.88
2022-11-21T17:02:45.285Z,93651.22
2022-11-21T17:14:33.375Z,93689.75
2022-11-21T17:19:35.464Z,93689.41
2022-11-21T17:24:37.514Z,93674.50
2022-11-21T17:30:11.575Z,93691.63
2022-11-21T17:35:13.625Z,93703.84
2022-11-21T17:40:15.601Z,93702.28
2022-11-21T17:45:17.563Z,93692.69
2022-11-21T17:50:19.586Z,93720.25
2022-11-21T17:55:21.438Z,93707.22
2022-11-21T18:00:23.411Z,93699.84
2022-11-21T18:05:25.441Z,93721.47
2022-11-21T18:10:42.888Z,93738.41
2022-11-21T18:15:45.714Z,93751.31
2022-11-21T18:20:47.652Z,93773.56
2022-11-21T18:26:14.271Z,93771.31
2022-11-21T18:31:21.486Z,93757.59
2022-11-21T18:36:24.115Z,93771.19
2022-11-21T18:41:31.622Z,93800.72
2022-11-21T18:46:36.624Z,93792.19
2022-11-21T18:51:40.761Z,93819.91
2022-11-21T18:56:43.002Z,93843.13
2022-11-21T19:01:45.031Z,93868.94
2022-11-21T19:06:46.989Z,93894.19
2022-11-21T19:11:48.987Z,93927.16
2022-11-21T19:16:50.936Z,93954.25
2022-11-21T19:21:52.782Z,93949.22
2022-11-21T19:26:54.633Z,93948.06
2022-11-21T19:31:56.636Z,93978.38
2022-11-21T19:36:58.541Z,93955.25
2022-11-21T19:42:00.364Z,93964.13
2022-11-21T19:47:02.192Z,93929.84
2022-11-21T19:52:04.107Z,93938.50
2022-11-21T19:57:10.777Z,93949.84
2022-11-21T20:02:18.661Z,93937.78
2022-11-21T20:07:20.541Z,93967.19
2022-11-21T20:12:22.372Z,93955.50
2022-11-21T20:17:24.350Z,93960.97
2022-11-21T20:22:26.271Z,93967.84
2022-11-21T20:27:28.153Z,93960.97
2022-11-21T20:32:32.220Z,93982.88
2022-11-21T20:37:34.045Z,93983.16
2022-11-21T20:42:37.487Z,93972.00
2022-11-21T20:47:39.371Z,94007.84
2022-11-21T20:59:51.772Z,94007.22
2022-11-21T21:04:53.620Z,93948.56
2022-11-21T21:09:57.072Z,93991.75
2022-11-21T21:14:59.105Z,93955.00
2022-11-21T21:20:01.078Z,94008.09
2022-11-21T21:25:03.947Z,94017.94
2022-11-21T21:30:06.364Z,94013.25
2022-11-21T21:35:08.663Z,94021.34
2022-11-21T21:40:10.885Z,94028.66
2022-11-21T21:45:12.742Z,94056.72
2022-11-21T21:50:16.125Z,94061.84
2022-11-21T21:55:18.156Z,94080.56
2022-11-21T22:00:20.167Z,94082.38
2022-11-21T22:05:22.020Z,94090.94
2022-11-21T22:10:24.001Z,94101.78
2022-11-21T22:15:25.832Z,94079.84
2022-11-21T22:20:28.497Z,94111.25
2022-11-21T22:25:30.391Z,94107.81
2022-11-21T22:30:32.367Z,94122.59
2022-11-21T22:35:35.135Z,94134.38
2022-11-21T22:40:37.115Z,94135.56
2022-11-21T22:45:39.912Z,94134.31
2022-11-21T22:50:45.163Z,94142.88
2022-11-21T22:56:02.495Z,94138.75
2022-11-21T23:01:10.116Z,94161.22
2022-11-21T23:06:23.903Z,94163.97
2022-11-21T23:11:28.940Z,94181.75
2022-11-21T23:16:30.870Z,94191.88
2022-11-21T23:21:32.841Z,94213.34
2022-11-21T23:26:34.920Z,94220.31
2022-11-21T23:31:36.806Z,94239.66
2022-11-21T23:36:38.619Z,94226.50
2022-11-21T23:41:40.718Z,94231.81
2022-11-21T23:46:42.523Z,94231.41
2022-11-21T23:51:44.340Z,94235.13
2022-11-21T23:56:46.204Z,94213.38
